Terminal Aerodrome Forecast
Issued by NWS Albany, NY

Home | Current Version | Previous Version | Text Only | Print | Product List | Glossary On
Versions: 1 2 3 4 5 6 7 8 9 10 11 12 13 14 15 16 17 18 19
000
FTUS41 KALY 241733
TAFPOU
TAF
KPOU 241733Z 2418/2518 19007KT P6SM FEW030 BKN100
     FM250300 VRB03KT 3SM BR OVC015
     FM250600 17003KT 2SM BR OVC008
     FM251500 17008KT 4SM BR OVC015=

USA.gov is the U.S. government's official web portal to all federal, state and local government web resources and services.